sensor_id;sensor_type;location;lat;lon;timestamp;temperature;humidity
2663;DHT22;49701;48.072;7.800;2022-08-03T00:02:15;20.80;99.90
2663;DHT22;49701;48.072;7.800;2022-08-03T00:04:41;20.70;99.90
2663;DHT22;49701;48.072;7.800;2022-08-03T00:07:06;20.70;99.90
2663;DHT22;49701;48.072;7.800;2022-08-03T00:09:32;20.60;99.90
2663;DHT22;49701;48.072;7.800;2022-08-03T00:11:58;20.60;99.90
2663;DHT22;49701;48.072;7.800;2022-08-03T00:14:23;20.50;99.90
2663;DHT22;49701;48.072;7.800;2022-08-03T00:16:49;20.50;99.90
2663;DHT22;49701;48.072;7.800;2022-08-03T00:19:14;20.40;99.90
2663;DHT22;49701;48.072;7.800;2022-08-03T00:21:40;20.40;99.90
2663;DHT22;49701;48.072;7.800;2022-08-03T00:24:06;20.40;99.90
2663;DHT22;49701;48.072;7.800;2022-08-03T00:26:31;20.40;99.90
2663;DHT22;49701;48.072;7.800;2022-08-03T00:28:57;20.40;99.90
2663;DHT22;49701;48.072;7.800;2022-08-03T00:31:22;20.30;99.90
2663;DHT22;49701;48.072;7.800;2022-08-03T00:33:48;20.30;99.90
2663;DHT22;49701;48.072;7.800;2022-08-03T00:36:13;20.30;99.90
2663;DHT22;49701;48.072;7.800;2022-08-03T00:38:39;20.20;99.90
2663;DHT22;49701;48.072;7.800;2022-08-03T00:41:04;20.30;99.90
2663;DHT22;49701;48.072;7.800;2022-08-03T00:43:30;20.30;99.90
2663;DHT22;49701;48.072;7.800;2022-08-03T00:45:56;20.20;99.90
2663;DHT22;49701;48.072;7.800;2022-08-03T00:48:21;20.20;99.90
2663;DHT22;49701;48.072;7.800;2022-08-03T00:50:47;20.10;99.90
2663;DHT22;49701;48.072;7.800;2022-08-03T00:53:13;20.10;99.90
2663;DHT22;49701;48.072;7.800;2022-08-03T00:55:40;20.10;99.90
2663;DHT22;49701;48.072;7.800;2022-08-03T00:58:06;20.10;99.90
2663;DHT22;49701;48.072;7.800;2022-08-03T01:00:35;20.00;99.90
2663;DHT22;49701;48.072;7.800;2022-08-03T01:03:03;20.00;99.90
2663;DHT22;49701;48.072;7.800;2022-08-03T01:05:37;20.00;99.90
2663;DHT22;49701;48.072;7.800;2022-08-03T01:08:12;20.00;99.90
2663;DHT22;49701;48.072;7.800;2022-08-03T01:11:07;20.00;99.90
2663;DHT22;49701;48.072;7.800;2022-08-03T01:14:02;20.00;99.90
2663;DHT22;49701;48.072;7.800;2022-08-03T01:16:33;20.00;99.90
2663;DHT22;49701;48.072;7.800;2022-08-03T01:24:59;20.10;99.90
2663;DHT22;49701;48.072;7.800;2022-08-03T01:30:19;20.00;99.90
2663;DHT22;49701;48.072;7.800;2022-08-03T01:32:57;20.00;99.90
2663;DHT22;49701;48.072;7.800;2022-08-03T01:37:57;20.00;99.90
2663;DHT22;49701;48.072;7.800;2022-08-03T01:40:26;19.90;99.90
2663;DHT22;49701;48.072;7.800;2022-08-03T01:42:54;19.90;99.90
2663;DHT22;49701;48.072;7.800;2022-08-03T01:45:22;19.80;99.90
2663;DHT22;49701;48.072;7.800;2022-08-03T01:47:48;19.80;99.90
2663;DHT22;49701;48.072;7.800;2022-08-03T01:50:17;19.80;99.90
2663;DHT22;49701;48.072;7.800;2022-08-03T01:52:44;19.70;99.90
2663;DHT22;49701;48.072;7.800;2022-08-03T01:55:12;19.70;99.90
2663;DHT22;49701;48.072;7.800;2022-08-03T01:57:42;19.60;99.90
2663;DHT22;49701;48.072;7.800;2022-08-03T02:00:09;19.50;99.90
2663;DHT22;49701;48.072;7.800;2022-08-03T02:02:36;19.50;99.90
2663;DHT22;49701;48.072;7.800;2022-08-03T02:05:05;19.50;99.90
2663;DHT22;49701;48.072;7.800;2022-08-03T02:07:32;19.50;99.90
2663;DHT22;49701;48.072;7.800;2022-08-03T02:10:00;19.50;99.90
2663;DHT22;49701;48.072;7.800;2022-08-03T02:12:27;19.50;99.90
2663;DHT22;49701;48.072;7.800;2022-08-03T02:14:54;19.50;99.90
2663;DHT22;49701;48.072;7.800;2022-08-03T02:17:21;19.50;99.90
2663;DHT22;49701;48.072;7.800;2022-08-03T02:19:49;19.50;99.90
2663;DHT22;49701;48.072;7.800;2022-08-03T02:22:16;19.50;99.90
2663;DHT22;49701;48.072;7.800;2022-08-03T02:24:42;19.50;99.90
2663;DHT22;49701;48.072;7.800;2022-08-03T02:27:26;19.50;99.90
2663;DHT22;49701;48.072;7.800;2022-08-03T02:30:04;19.40;99.90
2663;DHT22;49701;48.072;7.800;2022-08-03T02:32:35;19.40;99.90
2663;DHT22;49701;48.072;7.800;2022-08-03T02:35:03;19.40;99.90
2663;DHT22;49701;48.072;7.800;2022-08-03T02:37:36;19.40;99.90
2663;DHT22;49701;48.072;7.800;2022-08-03T02:40:05;19.40;99.90
2663;DHT22;49701;48.072;7.800;2022-08-03T02:42:34;19.40;99.90
2663;DHT22;49701;48.072;7.800;2022-08-03T02:45:02;19.40;99.90
2663;DHT22;49701;48.072;7.800;2022-08-03T02:47:30;19.30;99.90
2663;DHT22;49701;48.072;7.800;2022-08-03T02:49:57;19.30;99.90
2663;DHT22;49701;48.072;7.800;2022-08-03T02:52:26;19.30;99.90
2663;DHT22;49701;48.072;7.800;2022-08-03T02:54:58;19.40;99.90
2663;DHT22;49701;48.072;7.800;2022-08-03T02:57:29;19.30;99.90
2663;DHT22;49701;48.072;7.800;2022-08-03T02:59:56;19.20;99.90
2663;DHT22;49701;48.072;7.800;2022-08-03T03:02:23;19.20;99.90
2663;DHT22;49701;48.072;7.800;2022-08-03T03:04:50;19.20;99.90
2663;DHT22;49701;48.072;7.800;2022-08-03T03:07:16;19.20;99.90
2663;DHT22;49701;48.072;7.800;2022-08-03T03:09:42;19.20;99.90
2663;DHT22;49701;48.072;7.800;2022-08-03T03:12:09;19.10;99.90
2663;DHT22;49701;48.072;7.800;2022-08-03T03:14:36;19.20;99.90
2663;DHT22;49701;48.072;7.800;2022-08-03T03:17:02;19.10;99.90
2663;DHT22;49701;48.072;7.800;2022-08-03T03:19:29;19.10;99.90
2663;DHT22;49701;48.072;7.800;2022-08-03T03:21:59;19.10;99.90
2663;DHT22;49701;48.072;7.800;2022-08-03T03:24:27;19.10;99.90
2663;DHT22;49701;48.072;7.800;2022-08-03T03:26:53;19.00;99.90
2663;DHT22;49701;48.072;7.800;2022-08-03T03:29:19;19.00;99.90
2663;DHT22;49701;48.072;7.800;2022-08-03T03:31:44;18.90;99.90
2663;DHT22;49701;48.072;7.800;2022-08-03T03:34:10;18.90;99.90
2663;DHT22;49701;48.072;7.800;2022-08-03T03:36:36;18.90;99.90
2663;DHT22;49701;48.072;7.800;2022-08-03T03:39:02;18.90;99.90
2663;DHT22;49701;48.072;7.800;2022-08-03T03:41:27;18.90;99.90
2663;DHT22;49701;48.072;7.800;2022-08-03T03:43:53;18.90;99.90
2663;DHT22;49701;48.072;7.800;2022-08-03T03:46:19;18.90;99.90
2663;DHT22;49701;48.072;7.800;2022-08-03T03:48:44;18.90;99.90
2663;DHT22;49701;48.072;7.800;2022-08-03T03:51:10;18.90;99.90
2663;DHT22;49701;48.072;7.800;2022-08-03T03:53:36;18.80;99.90
2663;DHT22;49701;48.072;7.800;2022-08-03T03:56:01;18.80;99.90
2663;DHT22;49701;48.072;7.800;2022-08-03T03:58:27;18.80;99.90
2663;DHT22;49701;48.072;7.800;2022-08-03T04:00:52;18.80;99.90
2663;DHT22;49701;48.072;7.800;2022-08-03T04:03:19;18.70;99.90
2663;DHT22;49701;48.072;7.800;2022-08-03T04:05:44;18.70;99.90
2663;DHT22;49701;48.072;7.800;2022-08-03T04:08:28;18.70;99.90
2663;DHT22;49701;48.072;7.800;2022-08-03T04:14:05;18.60;99.90
2663;DHT22;49701;48.072;7.800;2022-08-03T04:16:37;18.60;99.90
2663;DHT22;49701;48.072;7.800;2022-08-03T04:19:10;18.60;99.90
2663;DHT22;49701;48.072;7.800;2022-08-03T04:21:41;18.50;99.90
2663;DHT22;49701;48.072;7.800;2022-08-03T04:24:08;18.40;99.90
2663;DHT22;49701;48.072;7.800;2022-08-03T04:26:38;18.40;99.90
2663;DHT22;49701;48.072;7.800;2022-08-03T04:29:05;18.40;99.90
2663;DHT22;49701;48.072;7.800;2022-08-03T04:31:31;18.40;99.90
2663;DHT22;49701;48.072;7.800;2022-08-03T04:33:58;18.40;99.90
2663;DHT22;49701;48.072;7.800;2022-08-03T04:36:31;18.40;99.90
2663;DHT22;49701;48.072;7.800;2022-08-03T04:39:07;18.40;99.90
2663;DHT22;49701;48.072;7.800;2022-08-03T04:41:35;18.30;99.90
2663;DHT22;49701;48.072;7.800;2022-08-03T04:44:01;18.30;99.90
2663;DHT22;49701;48.072;7.800;2022-08-03T04:46:32;18.10;99.90
2663;DHT22;49701;48.072;7.800;2022-08-03T04:48:59;18.10;99.90
2663;DHT22;49701;48.072;7.800;2022-08-03T04:51:25;18.00;99.90
2663;DHT22;49701;48.072;7.800;2022-08-03T04:53:51;18.00;99.90
2663;DHT22;49701;48.072;7.800;2022-08-03T04:56:16;18.00;99.90
2663;DHT22;49701;48.072;7.800;2022-08-03T04:58:42;18.00;99.90
2663;DHT22;49701;48.072;7.800;2022-08-03T05:01:08;18.00;99.90
2663;DHT22;49701;48.072;7.800;2022-08-03T05:03:33;18.00;99.90
2663;DHT22;49701;48.072;7.800;2022-08-03T05:05:59;18.10;99.90
2663;DHT22;49701;48.072;7.800;2022-08-03T05:08:24;18.10;99.90
2663;DHT22;49701;48.072;7.800;2022-08-03T05:10:50;18.10;99.90
2663;DHT22;49701;48.072;7.800;2022-08-03T05:13:16;18.10;99.90
2663;DHT22;49701;48.072;7.800;2022-08-03T05:15:41;18.20;99.90
2663;DHT22;49701;48.072;7.800;2022-08-03T05:18:07;18.20;99.90
2663;DHT22;49701;48.072;7.800;2022-08-03T05:20:32;18.40;99.90
2663;DHT22;49701;48.072;7.800;2022-08-03T05:22:58;18.40;99.90
2663;DHT22;49701;48.072;7.800;2022-08-03T05:25:26;18.50;99.90
2663;DHT22;49701;48.072;7.800;2022-08-03T05:27:52;18.60;99.90
2663;DHT22;49701;48.072;7.800;2022-08-03T05:30:18;18.70;99.90
2663;DHT22;49701;48.072;7.800;2022-08-03T05:32:44;18.80;99.90
2663;DHT22;49701;48.072;7.800;2022-08-03T05:35:09;18.90;99.90
2663;DHT22;49701;48.072;7.800;2022-08-03T05:37:35;19.00;99.90
2663;DHT22;49701;48.072;7.800;2022-08-03T05:40:01;19.20;99.90
2663;DHT22;49701;48.072;7.800;2022-08-03T05:42:27;19.30;99.90
2663;DHT22;49701;48.072;7.800;2022-08-03T05:44:52;19.40;99.90
2663;DHT22;49701;48.072;7.800;2022-08-03T05:47:18;19.50;99.90
2663;DHT22;49701;48.072;7.800;2022-08-03T05:49:43;19.70;99.90
2663;DHT22;49701;48.072;7.800;2022-08-03T05:52:09;19.80;99.90
2663;DHT22;49701;48.072;7.800;2022-08-03T05:54:37;20.00;99.90
2663;DHT22;49701;48.072;7.800;2022-08-03T05:57:02;20.00;99.90
2663;DHT22;49701;48.072;7.800;2022-08-03T05:59:28;20.20;99.90
2663;DHT22;49701;48.072;7.800;2022-08-03T06:01:53;20.40;99.90
2663;DHT22;49701;48.072;7.800;2022-08-03T06:04:19;20.50;99.90
2663;DHT22;49701;48.072;7.800;2022-08-03T06:06:44;20.60;99.90
2663;DHT22;49701;48.072;7.800;2022-08-03T06:09:09;20.60;99.90
2663;DHT22;49701;48.072;7.800;2022-08-03T06:11:35;20.70;99.90
2663;DHT22;49701;48.072;7.800;2022-08-03T06:14:01;20.80;99.90
2663;DHT22;49701;48.072;7.800;2022-08-03T06:16:27;21.00;99.90
2663;DHT22;49701;48.072;7.800;2022-08-03T06:18:52;21.10;99.90
2663;DHT22;49701;48.072;7.800;2022-08-03T06:21:18;21.20;99.90
2663;DHT22;49701;48.072;7.800;2022-08-03T06:23:43;21.20;99.90
2663;DHT22;49701;48.072;7.800;2022-08-03T06:26:09;21.30;99.90
2663;DHT22;49701;48.072;7.800;2022-08-03T06:28:35;21.40;99.90
2663;DHT22;49701;48.072;7.800;2022-08-03T06:31:01;21.50;99.90
2663;DHT22;49701;48.072;7.800;2022-08-03T06:33:26;21.60;99.90
2663;DHT22;49701;48.072;7.800;2022-08-03T06:35:52;21.70;99.90
2663;DHT22;49701;48.072;7.800;2022-08-03T06:38:18;21.80;99.90
2663;DHT22;49701;48.072;7.800;2022-08-03T06:40:43;22.00;99.90
2663;DHT22;49701;48.072;7.800;2022-08-03T06:43:08;22.20;99.90
2663;DHT22;49701;48.072;7.800;2022-08-03T06:45:34;22.30;99.90
2663;DHT22;49701;48.072;7.800;2022-08-03T06:48:00;22.40;99.90
2663;DHT22;49701;48.072;7.800;2022-08-03T06:50:26;22.60;99.90
2663;DHT22;49701;48.072;7.800;2022-08-03T06:52:52;22.70;99.90
2663;DHT22;49701;48.072;7.800;2022-08-03T06:55:17;22.90;99.90
2663;DHT22;49701;48.072;7.800;2022-08-03T06:57:43;23.10;99.90
2663;DHT22;49701;48.072;7.800;2022-08-03T07:00:09;23.30;99.90
2663;DHT22;49701;48.072;7.800;2022-08-03T07:02:36;23.50;99.90
2663;DHT22;49701;48.072;7.800;2022-08-03T07:05:01;23.60;99.90
2663;DHT22;49701;48.072;7.800;2022-08-03T07:07:27;23.80;99.90
2663;DHT22;49701;48.072;7.800;2022-08-03T07:09:52;24.00;99.90
2663;DHT22;49701;48.072;7.800;2022-08-03T07:12:18;24.20;99.90
2663;DHT22;49701;48.072;7.800;2022-08-03T07:14:43;24.40;99.90
2663;DHT22;49701;48.072;7.800;2022-08-03T07:17:09;24.60;99.90
2663;DHT22;49701;48.072;7.800;2022-08-03T07:19:34;24.70;99.90
2663;DHT22;49701;48.072;7.800;2022-08-03T07:22:00;24.80;99.90
2663;DHT22;49701;48.072;7.800;2022-08-03T07:24:27;24.90;99.90
2663;DHT22;49701;48.072;7.800;2022-08-03T07:26:53;25.00;99.90
2663;DHT22;49701;48.072;7.800;2022-08-03T07:29:18;25.20;99.90
2663;DHT22;49701;48.072;7.800;2022-08-03T07:31:44;25.40;99.90
2663;DHT22;49701;48.072;7.800;2022-08-03T07:34:10;25.70;99.90
2663;DHT22;49701;48.072;7.800;2022-08-03T07:36:37;26.00;99.90
2663;DHT22;49701;48.072;7.800;2022-08-03T07:39:03;26.30;99.90
2663;DHT22;49701;48.072;7.800;2022-08-03T07:41:29;26.50;99.90
2663;DHT22;49701;48.072;7.800;2022-08-03T07:43:54;26.60;99.90
2663;DHT22;49701;48.072;7.800;2022-08-03T07:46:20;26.80;99.90
2663;DHT22;49701;48.072;7.800;2022-08-03T07:48:46;27.00;99.90
2663;DHT22;49701;48.072;7.800;2022-08-03T07:51:11;27.10;99.90
2663;DHT22;49701;48.072;7.800;2022-08-03T07:53:37;27.30;99.60
2663;DHT22;49701;48.072;7.800;2022-08-03T07:56:02;27.50;99.20
2663;DHT22;49701;48.072;7.800;2022-08-03T07:58:28;27.80;98.60
2663;DHT22;49701;48.072;7.800;2022-08-03T08:00:53;28.10;98.00
2663;DHT22;49701;48.072;7.800;2022-08-03T08:03:19;28.40;97.10
2663;DHT22;49701;48.072;7.800;2022-08-03T08:05:46;28.70;96.40
2663;DHT22;49701;48.072;7.800;2022-08-03T08:08:12;28.90;95.20
2663;DHT22;49701;48.072;7.800;2022-08-03T08:10:37;29.10;94.50
2663;DHT22;49701;48.072;7.800;2022-08-03T08:13:03;29.20;93.70
2663;DHT22;49701;48.072;7.800;2022-08-03T08:15:30;29.30;93.10
2663;DHT22;49701;48.072;7.800;2022-08-03T08:17:57;29.40;92.50
2663;DHT22;49701;48.072;7.800;2022-08-03T08:20:25;29.60;92.20
2663;DHT22;49701;48.072;7.800;2022-08-03T08:22:51;29.90;91.80
2663;DHT22;49701;48.072;7.800;2022-08-03T08:25:17;30.10;91.30
2663;DHT22;49701;48.072;7.800;2022-08-03T08:27:43;30.40;90.50
2663;DHT22;49701;48.072;7.800;2022-08-03T08:30:09;30.60;89.50
2663;DHT22;49701;48.072;7.800;2022-08-03T08:32:35;30.90;87.50
2663;DHT22;49701;48.072;7.800;2022-08-03T08:35:03;31.00;86.30
2663;DHT22;49701;48.072;7.800;2022-08-03T08:37:28;31.00;85.90
2663;DHT22;49701;48.072;7.800;2022-08-03T08:39:55;31.10;85.40
2663;DHT22;49701;48.072;7.800;2022-08-03T08:42:21;31.30;85.60
2663;DHT22;49701;48.072;7.800;2022-08-03T08:44:47;31.60;85.40
2663;DHT22;49701;48.072;7.800;2022-08-03T08:47:13;31.80;84.90
2663;DHT22;49701;48.072;7.800;2022-08-03T08:49:38;32.00;84.00
2663;DHT22;49701;48.072;7.800;2022-08-03T08:52:05;32.40;82.80
2663;DHT22;49701;48.072;7.800;2022-08-03T08:54:32;32.50;81.70
2663;DHT22;49701;48.072;7.800;2022-08-03T08:57:00;32.70;80.70
2663;DHT22;49701;48.072;7.800;2022-08-03T08:59:26;33.00;80.20
2663;DHT22;49701;48.072;7.800;2022-08-03T09:01:55;33.20;79.00
2663;DHT22;49701;48.072;7.800;2022-08-03T09:04:21;33.50;77.80
2663;DHT22;49701;48.072;7.800;2022-08-03T09:06:47;33.70;76.70
2663;DHT22;49701;48.072;7.800;2022-08-03T09:09:12;33.80;75.50
2663;DHT22;49701;48.072;7.800;2022-08-03T09:11:41;33.90;74.50
2663;DHT22;49701;48.072;7.800;2022-08-03T09:14:06;34.00;74.20
2663;DHT22;49701;48.072;7.800;2022-08-03T09:16:33;34.20;73.60
2663;DHT22;49701;48.072;7.800;2022-08-03T09:19:02;34.50;72.50
2663;DHT22;49701;48.072;7.800;2022-08-03T09:21:36;34.70;71.50
2663;DHT22;49701;48.072;7.800;2022-08-03T09:24:03;34.80;70.80
2663;DHT22;49701;48.072;7.800;2022-08-03T09:26:29;34.90;70.10
2663;DHT22;49701;48.072;7.800;2022-08-03T09:28:56;35.10;68.90
2663;DHT22;49701;48.072;7.800;2022-08-03T09:31:39;35.20;68.20
2663;DHT22;49701;48.072;7.800;2022-08-03T09:34:07;35.20;67.00
2663;DHT22;49701;48.072;7.800;2022-08-03T09:36:40;35.20;67.20
2663;DHT22;49701;48.072;7.800;2022-08-03T09:39:11;35.20;67.20
2663;DHT22;49701;48.072;7.800;2022-08-03T09:41:41;35.40;66.70
2663;DHT22;49701;48.072;7.800;2022-08-03T09:44:07;35.40;66.20
2663;DHT22;49701;48.072;7.800;2022-08-03T09:46:50;35.40;65.70
2663;DHT22;49701;48.072;7.800;2022-08-03T09:49:15;35.60;64.80
2663;DHT22;49701;48.072;7.800;2022-08-03T09:51:41;35.80;64.00
2663;DHT22;49701;48.072;7.800;2022-08-03T09:54:06;36.00;63.30
2663;DHT22;49701;48.072;7.800;2022-08-03T09:56:39;36.10;63.00
2663;DHT22;49701;48.072;7.800;2022-08-03T09:59:05;36.20;62.30
2663;DHT22;49701;48.072;7.800;2022-08-03T10:01:31;36.30;61.70
2663;DHT22;49701;48.072;7.800;2022-08-03T10:03:57;36.50;61.00
2663;DHT22;49701;48.072;7.800;2022-08-03T10:06:24;36.80;60.70
2663;DHT22;49701;48.072;7.800;2022-08-03T10:09:04;36.90;59.90
2663;DHT22;49701;48.072;7.800;2022-08-03T10:11:30;37.10;59.90
2663;DHT22;49701;48.072;7.800;2022-08-03T10:13:56;37.30;59.30
2663;DHT22;49701;48.072;7.800;2022-08-03T10:16:22;37.40;58.90
2663;DHT22;49701;48.072;7.800;2022-08-03T10:18:47;37.40;57.90
2663;DHT22;49701;48.072;7.800;2022-08-03T10:21:14;37.40;59.10
2663;DHT22;49701;48.072;7.800;2022-08-03T10:23:40;37.40;59.70
2663;DHT22;49701;48.072;7.800;2022-08-03T10:26:06;37.40;59.70
2663;DHT22;49701;48.072;7.800;2022-08-03T10:28:33;37.50;59.20
2663;DHT22;49701;48.072;7.800;2022-08-03T10:30:59;37.60;58.90
2663;DHT22;49701;48.072;7.800;2022-08-03T10:33:27;37.60;59.00
2663;DHT22;49701;48.072;7.800;2022-08-03T10:35:53;37.70;59.20
2663;DHT22;49701;48.072;7.800;2022-08-03T10:38:31;37.80;59.20
2663;DHT22;49701;48.072;7.800;2022-08-03T10:40:57;37.90;59.20
2663;DHT22;49701;48.072;7.800;2022-08-03T10:43:31;38.10;58.60
2663;DHT22;49701;48.072;7.800;2022-08-03T10:45:58;38.30;57.70
2663;DHT22;49701;48.072;7.800;2022-08-03T10:48:24;38.60;56.90
2663;DHT22;49701;48.072;7.800;2022-08-03T10:50:50;38.70;56.30
2663;DHT22;49701;48.072;7.800;2022-08-03T10:53:33;38.90;54.80
2663;DHT22;49701;48.072;7.800;2022-08-03T10:55:59;39.00;54.60
2663;DHT22;49701;48.072;7.800;2022-08-03T10:58:51;39.10;53.80
2663;DHT22;49701;48.072;7.800;2022-08-03T11:01:19;39.30;53.10
2663;DHT22;49701;48.072;7.800;2022-08-03T11:06:29;39.40;50.70
2663;DHT22;49701;48.072;7.800;2022-08-03T11:11:40;39.50;52.30
2663;DHT22;49701;48.072;7.800;2022-08-03T11:16:45;39.70;52.80
2663;DHT22;49701;48.072;7.800;2022-08-03T11:19:14;39.90;52.90
2663;DHT22;49701;48.072;7.800;2022-08-03T11:35:14;40.70;50.70
2663;DHT22;49701;48.072;7.800;2022-08-03T11:40:40;41.10;49.80
2663;DHT22;49701;48.072;7.800;2022-08-03T11:45:59;41.30;49.30
2663;DHT22;49701;48.072;7.800;2022-08-03T11:48:28;41.50;49.30
2663;DHT22;49701;48.072;7.800;2022-08-03T11:51:02;41.60;49.10
2663;DHT22;49701;48.072;7.800;2022-08-03T11:53:28;41.80;48.20
2663;DHT22;49701;48.072;7.800;2022-08-03T11:55:58;42.10;47.40
2663;DHT22;49701;48.072;7.800;2022-08-03T11:58:24;42.10;46.60
2663;DHT22;49701;48.072;7.800;2022-08-03T12:00:50;42.10;46.30
2663;DHT22;49701;48.072;7.800;2022-08-03T12:03:18;42.00;47.10
2663;DHT22;49701;48.072;7.800;2022-08-03T12:05:49;42.10;47.20
2663;DHT22;49701;48.072;7.800;2022-08-03T12:10:52;42.30;46.40
2663;DHT22;49701;48.072;7.800;2022-08-03T12:13:19;41.90;46.80
2663;DHT22;49701;48.072;7.800;2022-08-03T12:15:56;41.60;46.90
2663;DHT22;49701;48.072;7.800;2022-08-03T12:18:22;41.50;47.40
2663;DHT22;49701;48.072;7.800;2022-08-03T12:20:50;41.50;47.00
2663;DHT22;49701;48.072;7.800;2022-08-03T12:23:16;41.60;46.60
2663;DHT22;49701;48.072;7.800;2022-08-03T12:25:43;41.80;45.90
2663;DHT22;49701;48.072;7.800;2022-08-03T12:28:16;41.80;44.80
2663;DHT22;49701;48.072;7.800;2022-08-03T12:30:48;41.60;45.20
2663;DHT22;49701;48.072;7.800;2022-08-03T12:33:25;41.30;44.70
2663;DHT22;49701;48.072;7.800;2022-08-03T12:36:06;40.90;45.20
2663;DHT22;49701;48.072;7.800;2022-08-03T12:38:33;40.70;45.90
2663;DHT22;49701;48.072;7.800;2022-08-03T12:41:06;40.90;45.60
2663;DHT22;49701;48.072;7.800;2022-08-03T12:43:33;40.80;45.10
2663;DHT22;49701;48.072;7.800;2022-08-03T12:46:10;40.80;45.00
2663;DHT22;49701;48.072;7.800;2022-08-03T12:48:55;40.40;44.50
2663;DHT22;49701;48.072;7.800;2022-08-03T12:51:20;40.10;45.60
2663;DHT22;49701;48.072;7.800;2022-08-03T12:53:51;40.10;44.90
2663;DHT22;49701;48.072;7.800;2022-08-03T12:56:17;40.00;44.70
2663;DHT22;49701;48.072;7.800;2022-08-03T12:58:45;40.10;44.70
2663;DHT22;49701;48.072;7.800;2022-08-03T13:01:12;40.20;44.40
2663;DHT22;49701;48.072;7.800;2022-08-03T13:03:42;40.40;44.00
2663;DHT22;49701;48.072;7.800;2022-08-03T13:06:24;40.30;43.80
2663;DHT22;49701;48.072;7.800;2022-08-03T13:09:10;40.40;43.70
2663;DHT22;49701;48.072;7.800;2022-08-03T13:11:36;40.40;43.70
2663;DHT22;49701;48.072;7.800;2022-08-03T13:14:02;40.40;44.30
2663;DHT22;49701;48.072;7.800;2022-08-03T13:16:27;40.60;43.90
2663;DHT22;49701;48.072;7.800;2022-08-03T13:18:53;40.60;44.30
2663;DHT22;49701;48.072;7.800;2022-08-03T13:21:19;40.70;44.50
2663;DHT22;49701;48.072;7.800;2022-08-03T13:23:45;41.00;43.90
2663;DHT22;49701;48.072;7.800;2022-08-03T13:26:12;41.00;43.30
2663;DHT22;49701;48.072;7.800;2022-08-03T13:28:38;40.90;42.90
2663;DHT22;49701;48.072;7.800;2022-08-03T13:31:04;41.00;43.30
2663;DHT22;49701;48.072;7.800;2022-08-03T13:33:30;41.00;43.00
2663;DHT22;49701;48.072;7.800;2022-08-03T13:35:55;41.10;42.70
2663;DHT22;49701;48.072;7.800;2022-08-03T13:38:22;41.20;40.20
2663;DHT22;49701;48.072;7.800;2022-08-03T13:40:47;41.20;37.60
2663;DHT22;49701;48.072;7.800;2022-08-03T13:43:13;41.10;38.10
2663;DHT22;49701;48.072;7.800;2022-08-03T13:45:39;41.30;38.50
2663;DHT22;49701;48.072;7.800;2022-08-03T13:48:04;41.50;38.30
2663;DHT22;49701;48.072;7.800;2022-08-03T13:50:30;41.70;38.10
2663;DHT22;49701;48.072;7.800;2022-08-03T13:52:56;41.80;37.80
2663;DHT22;49701;48.072;7.800;2022-08-03T13:55:22;41.80;36.70
2663;DHT22;49701;48.072;7.800;2022-08-03T13:57:48;41.60;33.70
2663;DHT22;49701;48.072;7.800;2022-08-03T14:00:15;41.20;33.40
2663;DHT22;49701;48.072;7.800;2022-08-03T14:02:41;40.60;37.00
2663;DHT22;49701;48.072;7.800;2022-08-03T14:05:07;40.20;38.50
2663;DHT22;49701;48.072;7.800;2022-08-03T14:07:32;40.00;39.20
2663;DHT22;49701;48.072;7.800;2022-08-03T14:09:58;40.00;38.80
2663;DHT22;49701;48.072;7.800;2022-08-03T14:12:26;40.00;38.10
2663;DHT22;49701;48.072;7.800;2022-08-03T14:14:51;39.90;38.30
2663;DHT22;49701;48.072;7.800;2022-08-03T14:17:17;39.70;38.30
2663;DHT22;49701;48.072;7.800;2022-08-03T14:19:42;39.50;37.30
2663;DHT22;49701;48.072;7.800;2022-08-03T14:22:08;39.50;37.50
2663;DHT22;49701;48.072;7.800;2022-08-03T14:24:33;39.60;38.70
2663;DHT22;49701;48.072;7.800;2022-08-03T14:26:59;39.70;38.40
2663;DHT22;49701;48.072;7.800;2022-08-03T14:29:24;39.50;38.10
2663;DHT22;49701;48.072;7.800;2022-08-03T14:31:49;39.30;38.90
2663;DHT22;49701;48.072;7.800;2022-08-03T14:34:15;39.20;39.20
2663;DHT22;49701;48.072;7.800;2022-08-03T14:36:40;39.10;39.60
2663;DHT22;49701;48.072;7.800;2022-08-03T14:39:06;39.30;40.00
2663;DHT22;49701;48.072;7.800;2022-08-03T14:41:32;39.50;39.90
2663;DHT22;49701;48.072;7.800;2022-08-03T14:43:57;39.60;39.60
2663;DHT22;49701;48.072;7.800;2022-08-03T14:46:23;39.70;38.50
2663;DHT22;49701;48.072;7.800;2022-08-03T14:48:48;39.60;38.60
2663;DHT22;49701;48.072;7.800;2022-08-03T14:51:14;39.50;38.80
2663;DHT22;49701;48.072;7.800;2022-08-03T14:53:40;39.30;39.00
2663;DHT22;49701;48.072;7.800;2022-08-03T14:56:06;39.30;38.80
2663;DHT22;49701;48.072;7.800;2022-08-03T14:58:31;39.50;39.00
2663;DHT22;49701;48.072;7.800;2022-08-03T15:00:57;39.60;38.90
2663;DHT22;49701;48.072;7.800;2022-08-03T15:03:23;39.70;38.80
2663;DHT22;49701;48.072;7.800;2022-08-03T15:05:54;40.00;38.80
2663;DHT22;49701;48.072;7.800;2022-08-03T15:08:22;40.20;38.70
2663;DHT22;49701;48.072;7.800;2022-08-03T15:10:48;40.10;38.10
2663;DHT22;49701;48.072;7.800;2022-08-03T15:13:15;40.10;38.10
2663;DHT22;49701;48.072;7.800;2022-08-03T15:15:40;40.10;37.70
2663;DHT22;49701;48.072;7.800;2022-08-03T15:18:07;40.00;37.70
2663;DHT22;49701;48.072;7.800;2022-08-03T15:20:32;40.00;37.30
2663;DHT22;49701;48.072;7.800;2022-08-03T15:22:58;39.70;37.10
2663;DHT22;49701;48.072;7.800;2022-08-03T15:25:24;39.50;37.70
2663;DHT22;49701;48.072;7.800;2022-08-03T15:27:49;39.40;37.60
2663;DHT22;49701;48.072;7.800;2022-08-03T15:30:15;39.30;37.70
2663;DHT22;49701;48.072;7.800;2022-08-03T15:32:40;39.20;38.20
2663;DHT22;49701;48.072;7.800;2022-08-03T15:35:06;39.20;39.40
2663;DHT22;49701;48.072;7.800;2022-08-03T15:37:32;39.10;40.30
2663;DHT22;49701;48.072;7.800;2022-08-03T15:39:57;39.10;40.80
2663;DHT22;49701;48.072;7.800;2022-08-03T15:42:23;39.00;41.10
2663;DHT22;49701;48.072;7.800;2022-08-03T15:44:49;39.00;41.30
2663;DHT22;49701;48.072;7.800;2022-08-03T15:47:14;39.00;41.80
2663;DHT22;49701;48.072;7.800;2022-08-03T15:49:40;39.00;42.10
2663;DHT22;49701;48.072;7.800;2022-08-03T15:52:06;39.00;42.70
2663;DHT22;49701;48.072;7.800;2022-08-03T15:54:32;38.90;43.20
2663;DHT22;49701;48.072;7.800;2022-08-03T15:56:57;38.60;43.50
2663;DHT22;49701;48.072;7.800;2022-08-03T15:59:23;38.40;44.50
2663;DHT22;49701;48.072;7.800;2022-08-03T16:01:48;38.30;45.10
2663;DHT22;49701;48.072;7.800;2022-08-03T16:04:14;38.20;45.30
2663;DHT22;49701;48.072;7.800;2022-08-03T16:06:39;38.30;45.40
2663;DHT22;49701;48.072;7.800;2022-08-03T16:09:05;38.30;45.40
2663;DHT22;49701;48.072;7.800;2022-08-03T16:11:31;38.30;45.50
2663;DHT22;49701;48.072;7.800;2022-08-03T16:13:57;38.30;45.50
2663;DHT22;49701;48.072;7.800;2022-08-03T16:16:22;38.20;44.60
2663;DHT22;49701;48.072;7.800;2022-08-03T16:18:48;38.00;44.80
2663;DHT22;49701;48.072;7.800;2022-08-03T16:21:13;37.80;45.60
2663;DHT22;49701;48.072;7.800;2022-08-03T16:23:39;37.70;45.90
2663;DHT22;49701;48.072;7.800;2022-08-03T16:26:04;37.50;45.80
2663;DHT22;49701;48.072;7.800;2022-08-03T16:28:30;37.50;45.80
2663;DHT22;49701;48.072;7.800;2022-08-03T16:30:58;37.40;45.80